sensor_id;sensor_type;location;lat;lon;timestamp;pressure;altitude;pressure_sealevel;temperature;humidity
56894;BME280;43392;50.078;13.704;2023-07-28T00:02:21;96185.56;;;16.46;93.26
56894;BME280;43392;50.078;13.704;2023-07-28T00:04:48;96189.53;;;16.48;93.78
56894;BME280;43392;50.078;13.704;2023-07-28T00:07:15;96176.78;;;16.49;93.99
56894;BME280;43392;50.078;13.704;2023-07-28T00:09:41;96167.06;;;16.48;93.50
56894;BME280;43392;50.078;13.704;2023-07-28T00:12:08;96176.00;;;16.48;93.94
56894;BME280;43392;50.078;13.704;2023-07-28T00:14:34;96179.50;;;16.49;93.59
56894;BME280;43392;50.078;13.704;2023-07-28T00:17:01;96176.34;;;16.47;93.84
56894;BME280;43392;50.078;13.704;2023-07-28T00:19:29;96171.03;;;16.50;93.74
56894;BME280;43392;50.078;13.704;2023-07-28T00:21:56;96165.63;;;16.50;94.01
56894;BME280;43392;50.078;13.704;2023-07-28T00:24:22;96165.31;;;16.52;94.11
56894;BME280;43392;50.078;13.704;2023-07-28T00:26:49;96159.88;;;16.52;93.73
56894;BME280;43392;50.078;13.704;2023-07-28T00:29:15;96159.88;;;16.52;94.10
56894;BME280;43392;50.078;13.704;2023-07-28T00:31:42;96156.69;;;16.50;94.02
56894;BME280;43392;50.078;13.704;2023-07-28T00:34:09;96149.38;;;16.50;94.59
56894;BME280;43392;50.078;13.704;2023-07-28T00:36:37;96156.69;;;16.50;94.22
56894;BME280;43392;50.078;13.704;2023-07-28T00:39:03;96154.47;;;16.52;94.58
56894;BME280;43392;50.078;13.704;2023-07-28T00:41:30;96160.22;;;16.50;94.82
56894;BME280;43392;50.078;13.704;2023-07-28T00:43:56;96158.28;;;16.51;94.94
56894;BME280;43392;50.078;13.704;2023-07-28T00:46:23;96155.28;;;16.52;94.62
56894;BME280;43392;50.078;13.704;2023-07-28T00:48:50;96155.28;;;16.52;95.24
56894;BME280;43392;50.078;13.704;2023-07-28T00:51:17;96149.06;;;16.52;95.09
56894;BME280;43392;50.078;13.704;2023-07-28T00:53:45;96139.50;;;16.54;95.06
56894;BME280;43392;50.078;13.704;2023-07-28T00:56:12;96137.59;;;16.55;94.71
56894;BME280;43392;50.078;13.704;2023-07-28T00:58:40;96136.47;;;16.56;95.04
56894;BME280;43392;50.078;13.704;2023-07-28T01:01:06;96127.22;;;16.57;94.62
56894;BME280;43392;50.078;13.704;2023-07-28T01:03:33;96123.72;;;16.56;94.73
56894;BME280;43392;50.078;13.704;2023-07-28T01:06:15;96129.47;;;16.55;94.86
56894;BME280;43392;50.078;13.704;2023-07-28T01:08:50;96118.63;;;16.55;95.27
56894;BME280;43392;50.078;13.704;2023-07-28T01:11:19;96127.22;;;16.57;95.32
56894;BME280;43392;50.078;13.704;2023-07-28T01:13:46;96123.72;;;16.56;95.46
56894;BME280;43392;50.078;13.704;2023-07-28T01:16:12;96115.63;;;16.56;95.45
56894;BME280;43392;50.078;13.704;2023-07-28T01:18:39;96110.19;;;16.56;95.04
56894;BME280;43392;50.078;13.704;2023-07-28T01:21:11;96107.16;;;16.58;95.18
56894;BME280;43392;50.078;13.704;2023-07-28T01:23:48;96099.03;;;16.58;95.34
56894;BME280;43392;50.078;13.704;2023-07-28T01:26:27;96097.78;;;16.55;95.46
56894;BME280;43392;50.078;13.704;2023-07-28T01:28:53;96106.69;;;16.56;95.55
56894;BME280;43392;50.078;13.704;2023-07-28T01:31:20;96103.19;;;16.55;95.51
56894;BME280;43392;50.078;13.704;2023-07-28T01:33:47;96110.06;;;16.53;95.47
56894;BME280;43392;50.078;13.704;2023-07-28T01:36:13;96106.69;;;16.56;95.40
56894;BME280;43392;50.078;13.704;2023-07-28T01:38:40;96105.56;;;16.57;95.54
56894;BME280;43392;50.078;13.704;2023-07-28T01:41:07;96109.06;;;16.57;95.46
56894;BME280;43392;50.078;13.704;2023-07-28T01:43:35;96098.22;;;16.57;95.12
56894;BME280;43392;50.078;13.704;2023-07-28T01:46:02;96104.00;;;16.56;95.28
56894;BME280;43392;50.078;13.704;2023-07-28T01:48:28;96100.84;;;16.54;95.78
56894;BME280;43392;50.078;13.704;2023-07-28T01:50:55;96101.94;;;16.53;95.30
56894;BME280;43392;50.078;13.704;2023-07-28T01:53:21;96095.25;;;16.50;95.44
56894;BME280;43392;50.078;13.704;2023-07-28T01:55:48;96105.44;;;16.53;95.37
56894;BME280;43392;50.078;13.704;2023-07-28T01:58:15;96108.47;;;16.52;95.99
56894;BME280;43392;50.078;13.704;2023-07-28T02:00:43;96101.47;;;16.51;96.01
56894;BME280;43392;50.078;13.704;2023-07-28T02:03:11;96099.06;;;16.49;95.67
56894;BME280;43392;50.078;13.704;2023-07-28T02:05:38;96099.88;;;16.50;96.14
56894;BME280;43392;50.078;13.704;2023-07-28T02:08:04;96104.47;;;16.49;96.04
56894;BME280;43392;50.078;13.704;2023-07-28T02:10:31;96106.06;;;16.50;96.16
56894;BME280;43392;50.078;13.704;2023-07-28T02:12:58;96092.88;;;16.49;95.90
56894;BME280;43392;50.078;13.704;2023-07-28T02:15:24;96096.25;;;16.46;96.13
56894;BME280;43392;50.078;13.704;2023-07-28T02:17:52;96091.75;;;16.50;95.74
56894;BME280;43392;50.078;13.704;2023-07-28T02:20:19;96094.44;;;16.50;95.92
56894;BME280;43392;50.078;13.704;2023-07-28T02:22:45;96091.75;;;16.50;96.04
56894;BME280;43392;50.078;13.704;2023-07-28T02:25:12;96099.88;;;16.50;96.24
56894;BME280;43392;50.078;13.704;2023-07-28T02:27:39;96099.88;;;16.50;95.67
56894;BME280;43392;50.078;13.704;2023-07-28T02:30:06;96103.38;;;16.50;96.14
56894;BME280;43392;50.078;13.704;2023-07-28T02:32:33;96103.38;;;16.50;95.76
56894;BME280;43392;50.078;13.704;2023-07-28T02:35:01;96099.06;;;16.49;95.65
56894;BME280;43392;50.078;13.704;2023-07-28T02:37:28;96097.50;;;16.48;95.84
56894;BME280;43392;50.078;13.704;2023-07-28T02:39:55;96096.72;;;16.48;95.99
56894;BME280;43392;50.078;13.704;2023-07-28T02:42:21;96105.00;;;16.51;95.97
56894;BME280;43392;50.078;13.704;2023-07-28T02:44:49;96106.06;;;16.50;95.89
56894;BME280;43392;50.078;13.704;2023-07-28T02:47:16;96111.50;;;16.50;96.18
56894;BME280;43392;50.078;13.704;2023-07-28T02:49:42;96112.28;;;16.51;95.76
56894;BME280;43392;50.078;13.704;2023-07-28T02:52:10;96107.97;;;16.50;95.85
56894;BME280;43392;50.078;13.704;2023-07-28T02:54:37;96098.75;;;16.51;96.09
56894;BME280;43392;50.078;13.704;2023-07-28T02:57:04;96103.06;;;16.52;95.74
56894;BME280;43392;50.078;13.704;2023-07-28T02:59:31;96101.47;;;16.51;95.86
56894;BME280;43392;50.078;13.704;2023-07-28T03:01:58;96100.34;;;16.52;95.78
56894;BME280;43392;50.078;13.704;2023-07-28T03:04:25;96103.06;;;16.52;95.54
56894;BME280;43392;50.078;13.704;2023-07-28T03:06:51;96111.97;;;16.52;95.51
56894;BME280;43392;50.078;13.704;2023-07-28T03:09:19;96111.97;;;16.52;95.84
56894;BME280;43392;50.078;13.704;2023-07-28T03:11:46;96119.28;;;16.52;95.85
56894;BME280;43392;50.078;13.704;2023-07-28T03:14:12;96106.72;;;16.47;96.01
56894;BME280;43392;50.078;13.704;2023-07-28T03:16:40;96118.00;;;16.49;95.65
56894;BME280;43392;50.078;13.704;2023-07-28T03:19:06;96122.00;;;16.52;95.67
56894;BME280;43392;50.078;13.704;2023-07-28T03:21:33;96119.59;;;16.50;95.95
56894;BME280;43392;50.078;13.704;2023-07-28T03:23:59;96115.81;;;16.51;95.73
56894;BME280;43392;50.078;13.704;2023-07-28T03:26:27;96113.41;;;16.50;95.26
56894;BME280;43392;50.078;13.704;2023-07-28T03:28:54;96114.19;;;16.50;95.83
56894;BME280;43392;50.078;13.704;2023-07-28T03:31:20;96113.41;;;16.50;95.69
56894;BME280;43392;50.078;13.704;2023-07-28T03:33:47;96116.09;;;16.50;95.68
56894;BME280;43392;50.078;13.704;2023-07-28T03:36:14;96120.72;;;16.49;95.68
56894;BME280;43392;50.078;13.704;2023-07-28T03:38:40;96124.22;;;16.50;95.54
56894;BME280;43392;50.078;13.704;2023-07-28T03:41:07;96111.38;;;16.47;95.87
56894;BME280;43392;50.078;13.704;2023-07-28T03:43:35;96115.81;;;16.51;95.77
56894;BME280;43392;50.078;13.704;2023-07-28T03:46:02;96122.81;;;16.52;95.72
56894;BME280;43392;50.078;13.704;2023-07-28T03:48:29;96120.88;;;16.53;95.31
56894;BME280;43392;50.078;13.704;2023-07-28T03:50:55;96127.09;;;16.53;95.86
56894;BME280;43392;50.078;13.704;2023-07-28T03:53:22;96130.91;;;16.52;95.66
56894;BME280;43392;50.078;13.704;2023-07-28T03:55:49;96135.53;;;16.52;95.42
56894;BME280;43392;50.078;13.704;2023-07-28T03:58:15;96135.53;;;16.52;95.80
56894;BME280;43392;50.078;13.704;2023-07-28T04:00:43;96124.72;;;16.52;95.61
56894;BME280;43392;50.078;13.704;2023-07-28T04:03:10;96126.66;;;16.51;95.80
56894;BME280;43392;50.078;13.704;2023-07-28T04:05:37;96128.53;;;16.51;95.78
56894;BME280;43392;50.078;13.704;2023-07-28T04:08:04;96130.91;;;16.52;95.85
56894;BME280;43392;50.078;13.704;2023-07-28T04:10:30;96126.13;;;16.49;95.81
56894;BME280;43392;50.078;13.704;2023-07-28T04:12:57;96131.72;;;16.53;96.18
56894;BME280;43392;50.078;13.704;2023-07-28T04:15:24;96132.50;;;16.53;96.33
56894;BME280;43392;50.078;13.704;2023-07-28T04:17:51;96139.84;;;16.53;96.00
56894;BME280;43392;50.078;13.704;2023-07-28T04:20:18;96134.75;;;16.51;96.49
56894;BME280;43392;50.078;13.704;2023-07-28T04:22:45;96130.91;;;16.52;96.29
56894;BME280;43392;50.078;13.704;2023-07-28T04:25:11;96127.41;;;16.52;96.25
56894;BME280;43392;50.078;13.704;2023-07-28T04:27:38;96126.31;;;16.53;96.75
56894;BME280;43392;50.078;13.704;2023-07-28T04:30:06;96126.31;;;16.53;96.54
56894;BME280;43392;50.078;13.704;2023-07-28T04:32:32;96131.38;;;16.54;97.02
56894;BME280;43392;50.078;13.704;2023-07-28T04:35:00;96128.34;;;16.56;96.69
56894;BME280;43392;50.078;13.704;2023-07-28T04:37:27;96128.34;;;16.56;96.71
56894;BME280;43392;50.078;13.704;2023-07-28T04:39:53;96129.91;;;16.57;97.20
56894;BME280;43392;50.078;13.704;2023-07-28T04:42:20;96137.59;;;16.55;96.84
56894;BME280;43392;50.078;13.704;2023-07-28T04:44:46;96136.13;;;16.57;97.23
56894;BME280;43392;50.078;13.704;2023-07-28T04:47:13;96136.91;;;16.58;97.54
56894;BME280;43392;50.078;13.704;2023-07-28T04:49:40;96136.91;;;16.58;97.15
56894;BME280;43392;50.078;13.704;2023-07-28T04:52:08;96126.09;;;16.58;97.63
56894;BME280;43392;50.078;13.704;2023-07-28T04:54:35;96122.59;;;16.57;97.31
56894;BME280;43392;50.078;13.704;2023-07-28T04:57:01;96121.94;;;16.61;97.46
56894;BME280;43392;50.078;13.704;2023-07-28T04:59:28;96115.38;;;16.62;97.84
56894;BME280;43392;50.078;13.704;2023-07-28T05:01:56;96113.47;;;16.62;97.86
56894;BME280;43392;50.078;13.704;2023-07-28T05:04:22;96112.34;;;16.63;98.00
56894;BME280;43392;50.078;13.704;2023-07-28T05:06:49;96122.03;;;16.64;98.17
56894;BME280;43392;50.078;13.704;2023-07-28T05:09:17;96119.81;;;16.66;98.24
56894;BME280;43392;50.078;13.704;2023-07-28T05:11:44;96117.09;;;16.66;97.88
56894;BME280;43392;50.078;13.704;2023-07-28T05:14:11;96119.91;;;16.70;98.29
56894;BME280;43392;50.078;13.704;2023-07-28T05:16:37;96114.66;;;16.73;98.24
56894;BME280;43392;50.078;13.704;2023-07-28T05:19:06;96119.72;;;16.75;98.00
56894;BME280;43392;50.078;13.704;2023-07-28T05:21:32;96110.25;;;16.81;98.16
56894;BME280;43392;50.078;13.704;2023-07-28T05:23:59;96123.91;;;16.84;98.24
56894;BME280;43392;50.078;13.704;2023-07-28T05:26:27;96115.91;;;16.88;97.79
56894;BME280;43392;50.078;13.704;2023-07-28T05:28:54;96128.44;;;16.92;98.15
56894;BME280;43392;50.078;13.704;2023-07-28T05:31:20;96128.91;;;16.94;98.14
56894;BME280;43392;50.078;13.704;2023-07-28T05:33:47;96125.84;;;16.96;98.24
56894;BME280;43392;50.078;13.704;2023-07-28T05:36:14;96139.16;;;17.01;97.85
56894;BME280;43392;50.078;13.704;2023-07-28T05:38:41;96136.91;;;17.03;98.05
56894;BME280;43392;50.078;13.704;2023-07-28T05:41:07;96142.31;;;17.03;98.24
56894;BME280;43392;50.078;13.704;2023-07-28T05:43:35;96140.41;;;17.03;98.15
56894;BME280;43392;50.078;13.704;2023-07-28T05:46:02;96142.31;;;17.03;98.42
56894;BME280;43392;50.078;13.704;2023-07-28T05:48:29;96145.84;;;17.03;98.54
56894;BME280;43392;50.078;13.704;2023-07-28T05:50:55;96147.88;;;17.06;98.39
56894;BME280;43392;50.078;13.704;2023-07-28T05:53:22;96149.94;;;17.09;98.39
56894;BME280;43392;50.078;13.704;2023-07-28T05:55:49;96151.84;;;17.09;98.10
56894;BME280;43392;50.078;13.704;2023-07-28T05:58:15;96156.59;;;17.12;98.46
56894;BME280;43392;50.078;13.704;2023-07-28T06:00:43;96148.13;;;17.13;98.07
56894;BME280;43392;50.078;13.704;2023-07-28T06:03:10;96134.56;;;17.13;98.11
56894;BME280;43392;50.078;13.704;2023-07-28T06:05:38;96151.72;;;17.17;98.38
56894;BME280;43392;50.078;13.704;2023-07-28T06:08:05;96142.47;;;17.18;98.29
56894;BME280;43392;50.078;13.704;2023-07-28T06:10:32;96147.09;;;17.18;98.07
56894;BME280;43392;50.078;13.704;2023-07-28T06:12:59;96156.47;;;17.20;98.28
56894;BME280;43392;50.078;13.704;2023-07-28T06:15:25;96161.91;;;17.20;98.55
56894;BME280;43392;50.078;13.704;2023-07-28T06:17:53;96172.72;;;17.20;98.17
56894;BME280;43392;50.078;13.704;2023-07-28T06:20:20;96171.94;;;17.20;98.75
56894;BME280;43392;50.078;13.704;2023-07-28T06:22:46;96182.47;;;17.21;98.27
56894;BME280;43392;50.078;13.704;2023-07-28T06:25:13;96179.41;;;17.23;98.77
56894;BME280;43392;50.078;13.704;2023-07-28T06:27:40;96175.91;;;17.22;98.40
56894;BME280;43392;50.078;13.704;2023-07-28T06:30:08;96179.06;;;17.24;98.48
56894;BME280;43392;50.078;13.704;2023-07-28T06:32:35;96184.47;;;17.24;98.79
56894;BME280;43392;50.078;13.704;2023-07-28T06:35:04;96196.91;;;17.25;98.64
56894;BME280;43392;50.078;13.704;2023-07-28T06:37:32;96186.88;;;17.26;98.77
56894;BME280;43392;50.078;13.704;2023-07-28T06:39:59;96188.44;;;17.27;98.64
56894;BME280;43392;50.078;13.704;2023-07-28T06:42:26;96192.38;;;17.30;98.79
56894;BME280;43392;50.078;13.704;2023-07-28T06:44:52;96195.91;;;17.30;98.94
56894;BME280;43392;50.078;13.704;2023-07-28T06:47:19;96184.72;;;17.32;98.83
56894;BME280;43392;50.078;13.704;2023-07-28T06:49:45;96190.59;;;17.34;98.44
56894;BME280;43392;50.078;13.704;2023-07-28T06:52:13;96193.31;;;17.34;98.51
56894;BME280;43392;50.078;13.704;2023-07-28T06:54:40;96190.59;;;17.34;98.97
56894;BME280;43392;50.078;13.704;2023-07-28T06:57:06;96192.50;;;17.33;98.72
56894;BME280;43392;50.078;13.704;2023-07-28T06:59:33;96194.44;;;17.33;98.82
56894;BME280;43392;50.078;13.704;2023-07-28T07:02:00;96199.19;;;17.36;98.59
56894;BME280;43392;50.078;13.704;2023-07-28T07:04:26;96201.22;;;17.39;98.47
56894;BME280;43392;50.078;13.704;2023-07-28T07:06:53;96191.16;;;17.39;98.51
56894;BME280;43392;50.078;13.704;2023-07-28T07:09:21;96192.09;;;17.43;98.60
56894;BME280;43392;50.078;13.704;2023-07-28T07:11:47;96192.66;;;17.49;98.30
56894;BME280;43392;50.078;13.704;2023-07-28T07:14:14;96192.78;;;17.52;98.40
56894;BME280;43392;50.078;13.704;2023-07-28T07:16:41;96198.44;;;17.59;97.92
56894;BME280;43392;50.078;13.704;2023-07-28T07:19:07;96206.34;;;17.64;97.92
56894;BME280;43392;50.078;13.704;2023-07-28T07:21:34;96201.50;;;17.70;97.91
56894;BME280;43392;50.078;13.704;2023-07-28T07:24:02;96204.31;;;17.73;97.89
56894;BME280;43392;50.078;13.704;2023-07-28T07:26:31;96213.81;;;17.79;97.56
56894;BME280;43392;50.078;13.704;2023-07-28T07:28:57;96210.09;;;17.84;97.25
56894;BME280;43392;50.078;13.704;2023-07-28T07:31:24;96204.09;;;17.90;97.15
56894;BME280;43392;50.078;13.704;2023-07-28T07:33:50;96210.09;;;17.96;96.81
56894;BME280;43392;50.078;13.704;2023-07-28T07:36:18;96213.81;;;18.04;96.64
56894;BME280;43392;50.078;13.704;2023-07-28T07:38:46;96201.94;;;18.08;95.96
56894;BME280;43392;50.078;13.704;2023-07-28T07:41:13;96216.38;;;18.12;96.05
56894;BME280;43392;50.078;13.704;2023-07-28T07:43:42;96212.31;;;18.18;95.95
56894;BME280;43392;50.078;13.704;2023-07-28T07:46:09;96212.53;;;18.25;95.41
56894;BME280;43392;50.078;13.704;2023-07-28T07:48:36;96219.75;;;18.33;95.48
56894;BME280;43392;50.078;13.704;2023-07-28T07:51:03;96218.03;;;18.41;95.16
56894;BME280;43392;50.078;13.704;2023-07-28T07:53:29;96205.69;;;18.43;95.31
56894;BME280;43392;50.078;13.704;2023-07-28T07:55:56;96216.34;;;18.48;94.89
56894;BME280;43392;50.078;13.704;2023-07-28T07:58:23;96220.75;;;18.53;94.30
56894;BME280;43392;50.078;13.704;2023-07-28T08:00:51;96225.16;;;18.58;94.38
56894;BME280;43392;50.078;13.704;2023-07-28T08:03:17;96223.69;;;18.60;94.33
56894;BME280;43392;50.078;13.704;2023-07-28T08:05:44;96223.78;;;18.64;94.16
56894;BME280;43392;50.078;13.704;2023-07-28T08:08:11;96226.94;;;18.66;94.15
56894;BME280;43392;50.078;13.704;2023-07-28T08:10:40;96223.53;;;18.69;93.73
56894;BME280;43392;50.078;13.704;2023-07-28T08:13:07;96227.84;;;18.70;93.76
56894;BME280;43392;50.078;13.704;2023-07-28T08:15:34;96235.28;;;18.73;93.36
56894;BME280;43392;50.078;13.704;2023-07-28T08:18:02;96235.75;;;18.75;93.35
56894;BME280;43392;50.078;13.704;2023-07-28T08:20:28;96230.41;;;18.78;93.14
56894;BME280;43392;50.078;13.704;2023-07-28T08:22:55;96242.16;;;18.82;93.04
56894;BME280;43392;50.078;13.704;2023-07-28T08:25:21;96248.81;;;18.85;92.77
56894;BME280;43392;50.078;13.704;2023-07-28T08:27:49;96252.34;;;18.85;92.38
56894;BME280;43392;50.078;13.704;2023-07-28T08:30:16;96253.94;;;18.86;92.42
56894;BME280;43392;50.078;13.704;2023-07-28T08:32:42;96250.84;;;18.88;92.14
56894;BME280;43392;50.078;13.704;2023-07-28T08:35:10;96257.16;;;18.92;91.75
56894;BME280;43392;50.078;13.704;2023-07-28T08:37:37;96257.28;;;18.95;91.67
56894;BME280;43392;50.078;13.704;2023-07-28T08:40:05;96261.69;;;19.00;91.37
56894;BME280;43392;50.078;13.704;2023-07-28T08:42:36;96255.13;;;19.01;90.79
56894;BME280;43392;50.078;13.704;2023-07-28T08:45:04;96253.81;;;19.10;90.69
56894;BME280;43392;50.078;13.704;2023-07-28T08:47:31;96261.00;;;19.18;90.56
56894;BME280;43392;50.078;13.704;2023-07-28T08:49:58;96262.13;;;19.30;88.67
56894;BME280;43392;50.078;13.704;2023-07-28T08:52:26;96265.84;;;19.37;86.83
56894;BME280;43392;50.078;13.704;2023-07-28T08:54:52;96266.34;;;19.43;86.05
56894;BME280;43392;50.078;13.704;2023-07-28T08:57:19;96278.22;;;19.50;85.89
56894;BME280;43392;50.078;13.704;2023-07-28T08:59:46;96272.19;;;19.57;85.53
56894;BME280;43392;50.078;13.704;2023-07-28T09:02:14;96276.75;;;19.68;85.66
56894;BME280;43392;50.078;13.704;2023-07-28T09:04:41;96277.38;;;19.77;85.38
56894;BME280;43392;50.078;13.704;2023-07-28T09:07:08;96264.13;;;19.92;84.73
56894;BME280;43392;50.078;13.704;2023-07-28T09:09:36;96281.06;;;20.01;85.24
56894;BME280;43392;50.078;13.704;2023-07-28T09:12:03;96267.00;;;19.99;84.37
56894;BME280;43392;50.078;13.704;2023-07-28T09:14:30;96275.00;;;20.07;84.32
56894;BME280;43392;50.078;13.704;2023-07-28T09:17:06;96272.56;;;20.02;84.28
56894;BME280;43392;50.078;13.704;2023-07-28T09:19:32;96285.19;;;20.10;83.86
56894;BME280;43392;50.078;13.704;2023-07-28T09:22:00;96283.41;;;20.18;83.20
56894;BME280;43392;50.078;13.704;2023-07-28T09:24:30;96282.91;;;20.28;82.49
56894;BME280;43392;50.078;13.704;2023-07-28T09:27:00;96283.16;;;20.38;80.74
56894;BME280;43392;50.078;13.704;2023-07-28T09:29:27;96282.53;;;20.45;80.04
56894;BME280;43392;50.078;13.704;2023-07-28T09:32:03;96285.41;;;20.52;79.02
56894;BME280;43392;50.078;13.704;2023-07-28T09:34:30;96269.59;;;20.58;79.02
56894;BME280;43392;50.078;13.704;2023-07-28T09:36:57;96282.88;;;20.78;78.37
56894;BME280;43392;50.078;13.704;2023-07-28T09:39:24;96275.56;;;20.82;79.29
56894;BME280;43392;50.078;13.704;2023-07-28T09:41:51;96265.47;;;20.83;78.79
56894;BME280;43392;50.078;13.704;2023-07-28T09:44:20;96260.34;;;20.81;77.80
56894;BME280;43392;50.078;13.704;2023-07-28T09:46:50;96273.91;;;20.78;77.21
56894;BME280;43392;50.078;13.704;2023-07-28T09:49:20;96266.47;;;20.75;77.14
56894;BME280;43392;50.078;13.704;2023-07-28T09:51:49;96265.94;;;20.69;77.02
56894;BME280;43392;50.078;13.704;2023-07-28T09:54:21;96267.25;;;20.75;76.73
56894;BME280;43392;50.078;13.704;2023-07-28T09:56:54;96271.34;;;20.85;76.10
56894;BME280;43392;50.078;13.704;2023-07-28T09:59:25;96271.13;;;20.93;75.05
56894;BME280;43392;50.078;13.704;2023-07-28T10:01:55;96274.97;;;21.08;74.53
56894;BME280;43392;50.078;13.704;2023-07-28T10:04:23;96278.31;;;21.21;73.24
56894;BME280;43392;50.078;13.704;2023-07-28T10:06:50;96274.38;;;21.18;73.51
56894;BME280;43392;50.078;13.704;2023-07-28T10:09:20;96272.16;;;21.24;73.42
56894;BME280;43392;50.078;13.704;2023-07-28T10:11:46;96276.28;;;21.37;71.93
56894;BME280;43392;50.078;13.704;2023-07-28T10:14:26;96268.06;;;21.33;70.97
56894;BME280;43392;50.078;13.704;2023-07-28T10:16:54;96264.47;;;21.29;71.57
56894;BME280;43392;50.078;13.704;2023-07-28T10:19:21;96274.94;;;21.27;71.85
56894;BME280;43392;50.078;13.704;2023-07-28T10:21:47;96278.75;;;21.23;72.00
56894;BME280;43392;50.078;13.704;2023-07-28T10:24:14;96279.19;;;21.25;72.14
56894;BME280;43392;50.078;13.704;2023-07-28T10:26:41;96282.00;;;21.28;72.23
56894;BME280;43392;50.078;13.704;2023-07-28T10:29:10;96287.06;;;21.30;72.43
56894;BME280;43392;50.078;13.704;2023-07-28T10:31:49;96281.88;;;21.44;72.22
56894;BME280;43392;50.078;13.704;2023-07-28T10:34:16;96287.13;;;21.52;72.18
56894;BME280;43392;50.078;13.704;2023-07-28T10:36:44;96280.59;;;21.57;71.64
56894;BME280;43392;50.078;13.704;2023-07-28T10:39:15;96275.25;;;21.64;71.78
56894;BME280;43392;50.078;13.704;2023-07-28T10:42:01;96290.06;;;21.63;71.46
56894;BME280;43392;50.078;13.704;2023-07-28T10:44:28;96292.47;;;21.68;71.58
56894;BME280;43392;50.078;13.704;2023-07-28T10:46:56;96287.88;;;21.72;71.76
56894;BME280;43392;50.078;13.704;2023-07-28T10:49:24;96290.19;;;21.70;71.97
56894;BME280;43392;50.078;13.704;2023-07-28T10:51:51;96286.28;;;21.71;71.76
56894;BME280;43392;50.078;13.704;2023-07-28T10:54:18;96281.91;;;21.66;71.39
56894;BME280;43392;50.078;13.704;2023-07-28T10:56:45;96285.75;;;21.62;71.60
56894;BME280;43392;50.078;13.704;2023-07-28T10:59:12;96295.03;;;21.57;71.45
56894;BME280;43392;50.078;13.704;2023-07-28T11:01:41;96297.03;;;21.60;71.38
56894;BME280;43392;50.078;13.704;2023-07-28T11:04:10;96292.72;;;21.59;71.58
56894;BME280;43392;50.078;13.704;2023-07-28T11:06:38;96288.75;;;21.57;71.18
56894;BME280;43392;50.078;13.704;2023-07-28T11:09:06;96291.88;;;21.55;71.38
56894;BME280;43392;50.078;13.704;2023-07-28T11:11:34;96279.44;;;21.58;71.08
56894;BME280;43392;50.078;13.704;2023-07-28T11:14:01;96279.63;;;21.68;70.76
56894;BME280;43392;50.078;13.704;2023-07-28T11:16:28;96281.25;;;21.73;70.62
56894;BME280;43392;50.078;13.704;2023-07-28T11:18:55;96275.06;;;21.76;69.80
56894;BME280;43392;50.078;13.704;2023-07-28T11:21:24;96284.91;;;21.80;69.49
56894;BME280;43392;50.078;13.704;2023-07-28T11:23:51;96285.31;;;21.82;69.11
56894;BME280;43392;50.078;13.704;2023-07-28T11:26:19;96289.56;;;21.80;69.19
56894;BME280;43392;50.078;13.704;2023-07-28T11:28:46;96293.75;;;21.74;69.65
56894;BME280;43392;50.078;13.704;2023-07-28T11:31:13;96299.22;;;21.74;69.49
56894;BME280;43392;50.078;13.704;2023-07-28T11:33:39;96290.22;;;21.73;69.40
56894;BME280;43392;50.078;13.704;2023-07-28T11:36:06;96294.91;;;21.73;68.97
56894;BME280;43392;50.078;13.704;2023-07-28T11:38:35;96292.53;;;21.71;68.15
56894;BME280;43392;50.078;13.704;2023-07-28T11:41:03;96292.63;;;21.75;68.23
56894;BME280;43392;50.078;13.704;2023-07-28T11:43:30;96288.78;;;21.79;68.64
56894;BME280;43392;50.078;13.704;2023-07-28T11:45:57;96287.69;;;21.84;68.97
56894;BME280;43392;50.078;13.704;2023-07-28T11:48:29;96295.31;;;21.94;68.41
56894;BME280;43392;50.078;13.704;2023-07-28T11:50:57;96283.72;;;22.01;68.07
56894;BME280;43392;50.078;13.704;2023-07-28T11:53:25;96292.75;;;22.05;67.63
56894;BME280;43392;50.078;13.704;2023-07-28T11:55:54;96289.22;;;22.04;66.35
56894;BME280;43392;50.078;13.704;2023-07-28T11:58:20;96291.59;;;22.06;66.70
56894;BME280;43392;50.078;13.704;2023-07-28T12:00:49;96288.88;;;22.06;65.89
56894;BME280;43392;50.078;13.704;2023-07-28T12:03:16;96302.94;;;22.08;65.76
56894;BME280;43392;50.078;13.704;2023-07-28T12:06:04;96305.41;;;22.16;64.58
56894;BME280;43392;50.078;13.704;2023-07-28T12:08:35;96299.00;;;22.28;63.91
56894;BME280;43392;50.078;13.704;2023-07-28T12:11:03;96302.19;;;22.33;64.54
56894;BME280;43392;50.078;13.704;2023-07-28T12:13:30;96304.56;;;22.35;64.38
56894;BME280;43392;50.078;13.704;2023-07-28T12:15:56;96314.41;;;22.39;64.25
56894;BME280;43392;50.078;13.704;2023-07-28T12:18:29;96300.03;;;22.46;63.68
56894;BME280;43392;50.078;13.704;2023-07-28T12:20:56;96311.50;;;22.55;64.04
56894;BME280;43392;50.078;13.704;2023-07-28T12:23:23;96309.56;;;22.56;63.99
56894;BME280;43392;50.078;13.704;2023-07-28T12:25:50;96306.81;;;22.56;63.97
56894;BME280;43392;50.078;13.704;2023-07-28T12:28:19;96311.16;;;22.57;62.29
56894;BME280;43392;50.078;13.704;2023-07-28T12:30:45;96298.31;;;22.61;61.00
56894;BME280;43392;50.078;13.704;2023-07-28T12:33:14;96299.94;;;22.62;61.04
56894;BME280;43392;50.078;13.704;2023-07-28T12:35:40;96300.34;;;22.64;60.79
56894;BME280;43392;50.078;13.704;2023-07-28T12:38:07;96297.19;;;22.62;61.17
56894;BME280;43392;50.078;13.704;2023-07-28T12:40:34;96304.59;;;22.61;60.98
56894;BME280;43392;50.078;13.704;2023-07-28T12:43:02;96300.75;;;22.66;61.47
56894;BME280;43392;50.078;13.704;2023-07-28T12:45:30;96301.28;;;22.75;61.08
56894;BME280;43392;50.078;13.704;2023-07-28T12:47:57;96308.38;;;22.79;60.30
56894;BME280;43392;50.078;13.704;2023-07-28T12:50:24;96305.69;;;22.83;59.98
56894;BME280;43392;50.078;13.704;2023-07-28T12:52:51;96301.13;;;22.90;60.28